sensor_id;sensor_type;location;lat;lon;timestamp;temperature;humidity
31687;DHT22;18285;51.330;4.946;2022-12-18T00:11:51;23.00;27.40
31687;DHT22;18285;51.330;4.946;2022-12-18T00:36:03;22.90;27.10
31687;DHT22;18285;51.330;4.946;2022-12-18T01:00:16;22.90;26.80
31687;DHT22;18285;51.330;4.946;2022-12-18T01:24:27;22.90;26.70
31687;DHT22;18285;51.330;4.946;2022-12-18T01:48:39;22.80;26.40
31687;DHT22;18285;51.330;4.946;2022-12-18T02:37:32;22.80;26.20
31687;DHT22;18285;51.330;4.946;2022-12-18T03:26:23;22.80;25.90
31687;DHT22;18285;51.330;4.946;2022-12-18T03:50:57;22.70;25.80
31687;DHT22;18285;51.330;4.946;2022-12-18T04:15:11;22.70;25.80
31687;DHT22;18285;51.330;4.946;2022-12-18T04:39:22;22.70;25.70
31687;DHT22;18285;51.330;4.946;2022-12-18T05:03:33;22.70;25.60
31687;DHT22;18285;51.330;4.946;2022-12-18T05:27:44;22.60;25.50
31687;DHT22;18285;51.330;4.946;2022-12-18T05:51:55;22.60;25.40
31687;DHT22;18285;51.330;4.946;2022-12-18T06:16:06;22.60;25.30
31687;DHT22;18285;51.330;4.946;2022-12-18T06:40:18;22.50;25.20
31687;DHT22;18285;51.330;4.946;2022-12-18T07:04:30;22.50;25.30
31687;DHT22;18285;51.330;4.946;2022-12-18T07:28:41;22.50;25.20
31687;DHT22;18285;51.330;4.946;2022-12-18T07:52:52;22.40;25.30
31687;DHT22;18285;51.330;4.946;2022-12-18T08:17:03;22.40;25.20
31687;DHT22;18285;51.330;4.946;2022-12-18T08:41:15;22.40;25.20
31687;DHT22;18285;51.330;4.946;2022-12-18T09:05:26;22.40;25.90
31687;DHT22;18285;51.330;4.946;2022-12-18T09:29:37;22.50;26.10
31687;DHT22;18285;51.330;4.946;2022-12-18T09:53:55;22.50;26.00
31687;DHT22;18285;51.330;4.946;2022-12-18T10:18:25;22.50;25.80
31687;DHT22;18285;51.330;4.946;2022-12-18T10:42:40;22.60;25.60
31687;DHT22;18285;51.330;4.946;2022-12-18T11:31:37;22.60;24.50
31687;DHT22;18285;51.330;4.946;2022-12-18T12:20:42;22.20;25.80
31687;DHT22;18285;51.330;4.946;2022-12-18T12:44:57;22.40;26.30
31687;DHT22;18285;51.330;4.946;2022-12-18T13:09:09;22.50;26.50
31687;DHT22;18285;51.330;4.946;2022-12-18T13:57:36;22.60;25.90
31687;DHT22;18285;51.330;4.946;2022-12-18T14:21:50;22.60;25.50
31687;DHT22;18285;51.330;4.946;2022-12-18T14:46:01;22.70;25.90
31687;DHT22;18285;51.330;4.946;2022-12-18T15:34:29;22.60;26.20
31687;DHT22;18285;51.330;4.946;2022-12-18T15:58:40;22.60;27.00
31687;DHT22;18285;51.330;4.946;2022-12-18T16:22:50;22.70;26.80
31687;DHT22;18285;51.330;4.946;2022-12-18T16:47:01;22.70;28.60
31687;DHT22;18285;51.330;4.946;2022-12-18T17:11:13;22.70;28.80
31687;DHT22;18285;51.330;4.946;2022-12-18T17:35:27;22.70;29.10
31687;DHT22;18285;51.330;4.946;2022-12-18T17:59:37;22.70;30.90
31687;DHT22;18285;51.330;4.946;2022-12-18T18:23:48;22.80;29.70
31687;DHT22;18285;51.330;4.946;2022-12-18T18:47:59;22.80;29.60
31687;DHT22;18285;51.330;4.946;2022-12-18T19:12:10;22.80;28.90
31687;DHT22;18285;51.330;4.946;2022-12-18T19:36:47;22.80;27.90
31687;DHT22;18285;51.330;4.946;2022-12-18T20:00:58;22.80;27.70
31687;DHT22;18285;51.330;4.946;2022-12-18T20:25:09;22.80;27.20
31687;DHT22;18285;51.330;4.946;2022-12-18T20:49:20;22.80;27.80
31687;DHT22;18285;51.330;4.946;2022-12-18T21:13:31;22.70;28.80
31687;DHT22;18285;51.330;4.946;2022-12-18T21:37:42;22.70;28.80
31687;DHT22;18285;51.330;4.946;2022-12-18T22:01:54;22.80;28.70
31687;DHT22;18285;51.330;4.946;2022-12-18T22:26:05;22.80;28.70
31687;DHT22;18285;51.330;4.946;2022-12-18T22:50:17;22.70;28.60
31687;DHT22;18285;51.330;4.946;2022-12-18T23:14:28;22.80;28.70
31687;DHT22;18285;51.330;4.946;2022-12-18T23:38:39;22.80;28.70
